createdAt,value
2019-02-22T00:00:28.342Z,16.50
2019-02-22T00:02:56.888Z,16.40
2019-02-22T00:05:25.466Z,17.93
2019-02-22T00:07:54.045Z,17.53
2019-02-22T00:10:22.597Z,17.67
2019-02-22T00:12:51.206Z,17.90
2019-02-22T00:15:19.785Z,17.50
2019-02-22T00:17:48.006Z,17.07
2019-02-22T00:20:16.585Z,17.73
2019-02-22T00:22:45.166Z,17.70
2019-02-22T00:25:13.701Z,18.77
2019-02-22T00:27:42.312Z,18.63
2019-02-22T00:30:10.989Z,16.57
2019-02-22T00:32:39.569Z,16.83
2019-02-22T00:35:07.878Z,18.20
2019-02-22T00:37:36.484Z,18.60
2019-02-22T00:40:05.883Z,16.70
2019-02-22T00:42:34.454Z,19.23
2019-02-22T00:45:03.073Z,19.00
2019-02-22T00:47:31.653Z,19.33
2019-02-22T00:50:00.314Z,19.10
2019-02-22T00:52:28.904Z,19.73
2019-02-22T00:54:57.432Z,18.30
2019-02-22T00:57:26.011Z,20.57
2019-02-22T00:59:54.236Z,18.40
2019-02-22T01:02:22.809Z,19.43
2019-02-22T01:04:51.357Z,19.77
2019-02-22T01:07:19.970Z,22.37
2019-02-22T01:09:48.193Z,21.10
2019-02-22T01:12:16.774Z,22.07
2019-02-22T01:14:45.327Z,15.50
2019-02-22T01:17:13.973Z,23.07
2019-02-22T01:19:42.522Z,21.20
2019-02-22T01:22:11.103Z,21.67
2019-02-22T01:24:39.348Z,23.17
2019-02-22T01:27:07.897Z,21.83
2019-02-22T01:29:36.480Z,19.97
2019-02-22T01:32:05.098Z,23.57
2019-02-22T01:34:33.707Z,16.97
2019-02-22T01:37:01.929Z,20.40
2019-02-22T01:39:30.209Z,20.93
2019-02-22T01:41:58.429Z,21.90
2019-02-22T01:44:27.007Z,21.13
2019-02-22T01:46:55.562Z,21.67
2019-02-22T01:49:23.840Z,22.77
2019-02-22T01:51:52.385Z,23.30
2019-02-22T01:54:20.962Z,22.23
2019-02-22T01:56:49.200Z,22.87
2019-02-22T01:59:17.761Z,21.87
2019-02-22T02:01:46.344Z,23.53
2019-02-22T02:04:14.942Z,22.07
2019-02-22T02:06:43.757Z,23.70
2019-02-22T02:09:12.497Z,22.50
2019-02-22T02:11:41.050Z,21.63
2019-02-22T02:14:09.658Z,24.53
2019-02-22T02:16:38.274Z,22.17
2019-02-22T02:19:06.952Z,22.03
2019-02-22T02:21:35.491Z,22.73
2019-02-22T02:24:04.305Z,22.70
2019-02-22T02:26:32.957Z,24.00
2019-02-22T02:29:01.577Z,23.47
2019-02-22T02:31:30.112Z,23.33
2019-02-22T02:33:58.684Z,22.83
2019-02-22T02:36:27.234Z,21.83
2019-02-22T02:38:55.781Z,24.77
2019-02-22T02:41:24.365Z,23.30
2019-02-22T02:43:52.913Z,23.43
2019-02-22T02:46:21.493Z,23.77
2019-02-22T02:48:49.708Z,23.77
2019-02-22T02:51:18.289Z,18.17
2019-02-22T02:53:46.829Z,23.00
2019-02-22T02:56:15.397Z,21.07
2019-02-22T02:58:43.947Z,20.90
2019-02-22T03:01:12.526Z,23.47
2019-02-22T03:03:41.069Z,23.80
2019-02-22T03:06:23.108Z,21.37
2019-02-22T03:08:51.663Z,23.33
2019-02-22T03:11:21.323Z,23.83
2019-02-22T03:13:50.085Z,22.87
2019-02-22T03:16:18.666Z,22.57
2019-02-22T03:18:47.214Z,22.20
2019-02-22T03:21:15.781Z,22.77
2019-02-22T03:23:43.999Z,22.93
2019-02-22T03:26:12.572Z,23.33
2019-02-22T03:28:41.121Z,23.23
2019-02-22T03:31:09.418Z,21.77
2019-02-22T03:33:38.014Z,22.10
2019-02-22T03:36:06.590Z,23.27
2019-02-22T03:38:35.138Z,22.47
2019-02-22T03:41:03.785Z,24.17
2019-02-22T03:43:32.328Z,25.23
2019-02-22T03:46:00.909Z,25.00
2019-02-22T03:48:29.462Z,22.37
2019-02-22T03:50:58.105Z,24.90
2019-02-22T03:53:28.301Z,24.80
2019-02-22T03:55:56.943Z,22.80
2019-02-22T03:58:25.233Z,22.73
2019-02-22T04:00:53.772Z,23.70
2019-02-22T04:03:22.093Z,19.13
2019-02-22T04:05:50.310Z,18.40
2019-02-22T04:08:18.891Z,24.13
2019-02-22T04:10:47.439Z,18.70
2019-02-22T04:13:16.098Z,25.57
2019-02-22T04:15:44.705Z,23.77
2019-02-22T04:18:13.278Z,21.47
2019-02-22T04:20:41.496Z,24.27
2019-02-22T04:23:09.744Z,25.97
2019-02-22T04:25:38.297Z,22.40
2019-02-22T04:28:06.870Z,25.43
2019-02-22T04:30:37.815Z,23.60
2019-02-22T04:33:05.632Z,24.47
2019-02-22T04:35:33.850Z,18.60
2019-02-22T04:38:02.096Z,23.20
2019-02-22T04:40:30.321Z,26.70
2019-02-22T04:42:58.897Z,26.03
2019-02-22T04:45:27.446Z,20.77
2019-02-22T04:47:56.013Z,21.83
2019-02-22T04:50:24.557Z,22.63
2019-02-22T04:52:53.138Z,21.93
2019-02-22T04:55:21.355Z,26.80
2019-02-22T04:57:49.926Z,22.07
2019-02-22T05:00:18.472Z,21.47
2019-02-22T05:02:47.049Z,17.87
2019-02-22T05:05:15.260Z,20.83
2019-02-22T05:07:43.837Z,19.43
2019-02-22T05:10:12.453Z,12.57
2019-02-22T05:12:41.036Z,23.73
2019-02-22T05:15:12.941Z,20.87
2019-02-22T05:17:39.802Z,26.50
2019-02-22T05:20:08.514Z,26.97
2019-02-22T05:22:37.080Z,23.93
2019-02-22T05:25:06.068Z,27.03
2019-02-22T05:27:34.649Z,26.37
2019-02-22T05:30:02.860Z,24.33
2019-02-22T05:32:31.113Z,26.17
2019-02-22T05:34:59.665Z,23.77
2019-02-22T05:37:28.215Z,24.47
2019-02-22T05:39:56.781Z,25.40
2019-02-22T05:42:25.320Z,23.97
2019-02-22T05:44:53.893Z,25.03
2019-02-22T05:47:22.436Z,27.00
2019-02-22T05:49:51.017Z,25.80
2019-02-22T05:52:19.559Z,24.13
2019-02-22T05:54:48.133Z,24.43
2019-02-22T05:57:16.672Z,25.67
2019-02-22T05:59:44.929Z,24.93
2019-02-22T06:02:14.570Z,23.07
2019-02-22T06:04:43.007Z,25.63
2019-02-22T06:07:14.358Z,27.93
2019-02-22T06:09:41.424Z,19.03
2019-02-22T06:12:09.971Z,25.57
2019-02-22T06:14:38.537Z,24.53
2019-02-22T06:17:14.628Z,27.67
2019-02-22T06:19:36.982Z,24.23
2019-02-22T06:22:05.526Z,24.13
2019-02-22T06:24:33.772Z,25.33
2019-02-22T06:27:01.996Z,22.90
2019-02-22T06:29:30.567Z,26.73
2019-02-22T06:31:59.108Z,24.83
2019-02-22T06:34:27.690Z,26.97
2019-02-22T06:37:01.807Z,24.13
2019-02-22T06:39:26.460Z,24.63
2019-02-22T06:41:54.668Z,26.27
2019-02-22T06:44:23.251Z,26.23
2019-02-22T06:46:51.793Z,20.77
2019-02-22T06:49:20.364Z,17.53
2019-02-22T06:51:48.913Z,19.87
2019-02-22T06:54:17.486Z,21.03
2019-02-22T06:56:45.696Z,23.23
2019-02-22T06:59:14.277Z,18.90
2019-02-22T07:01:42.502Z,16.47
2019-02-22T07:04:10.736Z,27.97
2019-02-22T07:06:39.280Z,27.77
2019-02-22T07:09:07.824Z,25.53
2019-02-22T07:11:46.616Z,27.40
2019-02-22T07:14:15.190Z,26.47
2019-02-22T07:16:43.741Z,24.27
2019-02-22T07:19:11.952Z,24.20
2019-02-22T07:21:52.062Z,24.23
2019-02-22T07:24:10.726Z,23.87
2019-02-22T07:26:39.296Z,25.47
2019-02-22T07:29:07.840Z,28.77
2019-02-22T07:31:36.485Z,26.47
2019-02-22T07:34:05.029Z,26.50
2019-02-22T07:36:33.611Z,25.07
2019-02-22T07:39:02.149Z,22.33
2019-02-22T07:41:30.793Z,24.40
2019-02-22T07:43:59.337Z,18.50
2019-02-22T07:46:27.583Z,22.33
2019-02-22T07:48:56.125Z,23.63
2019-02-22T07:51:24.696Z,20.20
2019-02-22T07:53:52.909Z,23.10
2019-02-22T07:56:21.484Z,23.17
2019-02-22T07:58:50.028Z,24.50
2019-02-22T08:01:18.668Z,22.17
2019-02-22T08:03:47.207Z,19.87
2019-02-22T08:06:15.776Z,20.10
2019-02-22T08:08:43.998Z,22.90
2019-02-22T08:11:12.571Z,22.40
2019-02-22T08:13:41.113Z,15.80
2019-02-22T08:16:09.689Z,26.43
2019-02-22T08:18:38.231Z,26.00
2019-02-22T08:21:06.805Z,24.67
2019-02-22T08:23:35.417Z,24.60
2019-02-22T08:26:03.660Z,24.87
2019-02-22T08:28:32.272Z,25.07
2019-02-22T08:31:00.982Z,23.57
2019-02-22T08:33:29.529Z,26.00
2019-02-22T08:35:58.373Z,24.10
2019-02-22T08:38:26.917Z,24.33
2019-02-22T08:40:55.780Z,19.20
2019-02-22T08:43:31.606Z,22.13
2019-02-22T08:45:54.519Z,20.47
2019-02-22T08:48:23.084Z,21.83
2019-02-22T08:50:51.661Z,20.87
2019-02-22T08:53:20.213Z,20.77
2019-02-22T08:55:48.786Z,20.90
2019-02-22T08:58:17.477Z,22.03
2019-02-22T09:00:46.046Z,20.93
2019-02-22T09:03:14.588Z,22.07
2019-02-22T09:05:43.160Z,22.10
2019-02-22T09:08:11.709Z,20.37
2019-02-22T09:10:40.271Z,18.70
2019-02-22T09:13:09.590Z,18.67
2019-02-22T09:15:38.205Z,18.70
2019-02-22T09:18:06.848Z,17.60
2019-02-22T09:20:35.480Z,18.37
2019-02-22T09:23:04.033Z,18.80
2019-02-22T09:25:32.649Z,18.70
2019-02-22T09:28:01.230Z,18.77
2019-02-22T09:30:29.769Z,17.03
2019-02-22T09:32:58.344Z,16.43
2019-02-22T09:35:26.892Z,16.10
2019-02-22T09:37:55.460Z,16.67
2019-02-22T09:40:24.011Z,15.60
2019-02-22T09:42:52.592Z,15.07
2019-02-22T09:45:21.132Z,16.37
2019-02-22T09:47:49.705Z,15.50
2019-02-22T09:50:18.244Z,14.87
2019-02-22T09:52:46.841Z,13.17
2019-02-22T09:55:15.376Z,12.77
2019-02-22T09:57:43.958Z,12.73
2019-02-22T10:00:15.586Z,12.20
2019-02-22T10:02:44.952Z,11.17
2019-02-22T10:05:14.555Z,12.27
2019-02-22T10:07:43.135Z,12.87
2019-02-22T10:10:12.120Z,12.87
2019-02-22T10:12:40.696Z,12.37
2019-02-22T10:15:10.585Z,10.97
2019-02-22T10:17:39.137Z,11.63
2019-02-22T10:20:11.448Z,12.57
2019-02-22T10:22:39.988Z,16.60
2019-02-22T10:25:08.710Z,13.80
2019-02-22T10:27:37.267Z,15.03
2019-02-22T10:30:08.913Z,12.80
2019-02-22T10:32:37.457Z,12.87
2019-02-22T10:35:07.073Z,13.13
2019-02-22T10:37:35.693Z,11.50
2019-02-22T10:40:06.708Z,11.03
2019-02-22T10:42:35.256Z,10.07
2019-02-22T10:45:04.369Z,8.30
2019-02-22T10:47:32.908Z,9.43
2019-02-22T10:50:01.489Z,8.27
2019-02-22T10:52:30.038Z,7.80
2019-02-22T10:54:58.687Z,7.80
2019-02-22T10:57:27.236Z,7.73
2019-02-22T10:59:55.814Z,6.70
2019-02-22T11:02:24.352Z,6.70
2019-02-22T11:04:52.924Z,6.70
2019-02-22T11:07:21.464Z,6.50
2019-02-22T11:09:50.045Z,6.47
2019-02-22T11:12:18.256Z,6.67
2019-02-22T11:14:47.079Z,6.90
2019-02-22T11:17:15.671Z,7.10
2019-02-22T11:19:44.245Z,6.40
2019-02-22T11:22:12.851Z,6.87
2019-02-22T11:24:41.427Z,6.87
2019-02-22T11:27:09.972Z,6.80
2019-02-22T11:29:38.219Z,6.50
2019-02-22T11:32:06.839Z,6.47
2019-02-22T11:34:35.414Z,6.47
2019-02-22T11:37:04.328Z,7.73
2019-02-22T11:39:32.901Z,7.07
2019-02-22T11:42:01.473Z,7.17
2019-02-22T11:44:39.859Z,7.47
2019-02-22T11:47:00.213Z,7.30
2019-02-22T11:49:28.457Z,7.23
2019-02-22T11:51:57.005Z,7.20
2019-02-22T11:54:25.548Z,6.50
2019-02-22T11:56:53.893Z,5.47
2019-02-22T11:59:22.438Z,6.40
2019-02-22T12:01:51.008Z,6.23
2019-02-22T12:04:19.619Z,6.17
2019-02-22T12:06:48.220Z,5.03
2019-02-22T12:09:16.839Z,3.70
2019-02-22T12:11:45.445Z,4.27
2019-02-22T12:14:14.051Z,3.57
2019-02-22T12:16:42.228Z,2.80
2019-02-22T12:19:10.442Z,3.00
2019-02-22T12:21:38.701Z,3.50
2019-02-22T12:24:07.293Z,3.37
2019-02-22T12:26:35.868Z,3.33
2019-02-22T12:29:04.479Z,3.10
2019-02-22T12:31:33.044Z,3.30
2019-02-22T12:34:01.603Z,2.90
2019-02-22T12:36:30.161Z,2.90
2019-02-22T12:38:58.771Z,3.37
2019-02-22T12:41:27.345Z,2.97
2019-02-22T12:43:55.884Z,3.10
2019-02-22T12:46:24.506Z,3.30
2019-02-22T12:48:53.006Z,3.03
2019-02-22T12:51:21.584Z,7.70
2019-02-22T12:53:50.120Z,4.50
2019-02-22T12:56:18.697Z,3.67
2019-02-22T12:58:47.078Z,3.87
2019-02-22T13:01:15.672Z,3.50
2019-02-22T13:03:44.217Z,3.77
2019-02-22T13:06:12.857Z,7.33
2019-02-22T13:08:41.405Z,3.90
2019-02-22T13:11:09.644Z,5.70
2019-02-22T13:13:38.262Z,3.70
2019-02-22T13:16:06.828Z,3.87
2019-02-22T13:18:35.443Z,3.20
2019-02-22T13:21:03.948Z,3.40
2019-02-22T13:23:32.565Z,3.00
2019-02-22T13:26:01.117Z,2.70
2019-02-22T13:28:29.378Z,2.77
2019-02-22T13:30:57.597Z,2.90
2019-02-22T13:33:26.164Z,2.87
2019-02-22T13:35:54.708Z,2.37
2019-02-22T13:38:23.348Z,3.00
2019-02-22T13:40:51.893Z,2.70
2019-02-22T13:43:20.135Z,2.93
2019-02-22T13:45:48.741Z,2.40
2019-02-22T13:48:17.388Z,2.90
2019-02-22T13:50:45.925Z,2.90
2019-02-22T13:53:14.501Z,3.00
2019-02-22T13:55:43.041Z,3.27
2019-02-22T13:58:11.617Z,3.13
2019-02-22T14:00:39.828Z,2.57
2019-02-22T14:03:08.398Z,2.63
2019-02-22T14:05:36.618Z,2.43
2019-02-22T14:08:04.857Z,3.10
2019-02-22T14:10:33.394Z,3.73
2019-02-22T14:13:01.969Z,2.53
2019-02-22T14:15:37.980Z,5.40
2019-02-22T14:18:00.056Z,3.60
2019-02-22T14:20:28.600Z,3.50
2019-02-22T14:22:57.168Z,3.50
2019-02-22T14:25:25.712Z,4.40
2019-02-22T14:27:54.279Z,3.30
2019-02-22T14:30:22.827Z,3.10
2019-02-22T14:32:51.399Z,3.03
2019-02-22T14:35:20.018Z,2.70
2019-02-22T14:37:48.585Z,3.27
2019-02-22T14:40:17.129Z,2.90
2019-02-22T14:42:45.772Z,3.40
2019-02-22T14:45:14.386Z,2.63
2019-02-22T14:47:43.071Z,3.37
2019-02-22T14:50:17.196Z,3.33
2019-02-22T14:52:45.814Z,3.50
2019-02-22T14:55:14.384Z,2.90
2019-02-22T14:57:45.048Z,3.33
2019-02-22T15:00:15.682Z,2.93
2019-02-22T15:02:44.227Z,3.37
2019-02-22T15:05:13.941Z,3.03
2019-02-22T15:07:42.557Z,2.97
2019-02-22T15:10:11.164Z,3.10
2019-02-22T15:12:39.776Z,3.87
2019-02-22T15:15:13.633Z,3.30
2019-02-22T15:17:46.365Z,3.63
2019-02-22T15:20:14.929Z,2.70
2019-02-22T15:22:43.469Z,3.13
2019-02-22T15:25:13.789Z,2.90
2019-02-22T15:27:42.410Z,2.80
2019-02-22T15:30:12.341Z,2.67
2019-02-22T15:32:40.519Z,2.77
2019-02-22T15:35:14.196Z,2.97
2019-02-22T15:37:43.460Z,3.00
2019-02-22T15:40:13.058Z,2.60
2019-02-22T15:42:41.672Z,2.83
2019-02-22T15:45:15.187Z,3.10
2019-02-22T15:47:43.762Z,2.80
2019-02-22T15:50:17.332Z,2.63
2019-02-22T15:52:46.911Z,2.70
2019-02-22T15:55:15.549Z,2.90
2019-02-22T15:57:44.088Z,2.90
2019-02-22T16:00:24.695Z,2.60
2019-02-22T16:02:53.237Z,3.00
2019-02-22T16:05:23.440Z,2.90
2019-02-22T16:07:52.120Z,2.30
2019-02-22T16:10:20.777Z,6.23
2019-02-22T16:12:49.541Z,6.73
2019-02-22T16:15:18.320Z,3.63
2019-02-22T16:17:46.865Z,3.33
2019-02-22T16:20:15.505Z,3.20
2019-02-22T16:22:44.191Z,3.40
2019-02-22T16:25:19.564Z,3.60
2019-02-22T16:27:42.634Z,3.40
2019-02-22T16:30:15.474Z,3.87
2019-02-22T16:32:44.014Z,3.60
2019-02-22T16:35:12.582Z,4.60
2019-02-22T16:37:40.796Z,2.43
2019-02-22T16:40:12.786Z,7.63
2019-02-22T16:42:41.428Z,7.40
2019-02-22T16:45:13.732Z,8.93
2019-02-22T16:47:42.369Z,4.93
2019-02-22T16:50:12.350Z,5.73
2019-02-22T16:52:40.985Z,5.17
2019-02-22T16:55:14.811Z,5.33
2019-02-22T16:57:43.338Z,9.40
2019-02-22T17:00:16.399Z,9.00
2019-02-22T17:02:45.044Z,8.23
2019-02-22T17:05:15.832Z,6.73
2019-02-22T17:07:44.465Z,6.10
2019-02-22T17:10:13.155Z,7.60
2019-02-22T17:12:41.721Z,7.23
2019-02-22T17:15:12.968Z,6.33
2019-02-22T17:17:41.544Z,6.40
2019-02-22T17:20:11.292Z,6.37
2019-02-22T17:22:39.932Z,4.10
2019-02-22T17:25:14.492Z,6.20
2019-02-22T17:27:43.058Z,4.37
2019-02-22T17:30:16.739Z,5.10
2019-02-22T17:32:45.313Z,3.63
2019-02-22T17:35:14.082Z,2.70
2019-02-22T17:37:42.648Z,2.50
2019-02-22T17:40:16.445Z,3.10
2019-02-22T17:42:45.009Z,3.03
2019-02-22T17:45:13.602Z,2.20
2019-02-22T17:47:42.125Z,2.97
2019-02-22T17:50:11.197Z,2.90
2019-02-22T17:52:39.838Z,2.70
2019-02-22T17:55:09.722Z,3.13
2019-02-22T17:57:38.037Z,3.13
2019-02-22T18:00:16.516Z,2.97
2019-02-22T18:02:45.081Z,3.53
2019-02-22T18:05:13.695Z,2.93
2019-02-22T18:07:42.261Z,3.23
2019-02-22T18:10:11.540Z,2.90
2019-02-22T18:12:40.104Z,3.47
2019-02-22T18:15:11.054Z,3.77
2019-02-22T18:17:40.659Z,3.50
2019-02-22T18:20:08.873Z,3.83
2019-02-22T18:22:37.114Z,3.67
2019-02-22T18:25:08.369Z,3.60
2019-02-22T18:27:37.078Z,4.50
2019-02-22T18:30:06.829Z,3.87
2019-02-22T18:32:35.394Z,3.73
2019-02-22T18:35:04.569Z,4.37
2019-02-22T18:37:33.436Z,4.30
2019-02-22T18:40:02.019Z,4.80
2019-02-22T18:42:30.657Z,4.23
2019-02-22T18:44:59.225Z,4.70
2019-02-22T18:47:27.442Z,4.33
2019-02-22T18:49:56.006Z,4.87
2019-02-22T18:52:24.540Z,3.97
2019-02-22T18:54:53.114Z,4.50
2019-02-22T18:57:21.656Z,4.83
2019-02-22T18:59:50.225Z,4.73
2019-02-22T19:02:18.444Z,5.10
2019-02-22T19:04:47.010Z,3.93
2019-02-22T19:07:15.548Z,4.93
2019-02-22T19:09:44.112Z,4.57
2019-02-22T19:12:12.653Z,5.07
2019-02-22T19:14:41.220Z,4.60
2019-02-22T19:17:09.773Z,5.30
2019-02-22T19:19:38.015Z,4.83
2019-02-22T19:22:06.557Z,5.00
2019-02-22T19:24:35.132Z,4.63
2019-02-22T19:27:03.673Z,5.13
2019-02-22T19:29:32.249Z,5.20
2019-02-22T19:32:00.792Z,4.80
2019-02-22T19:34:29.357Z,5.40
2019-02-22T19:36:57.896Z,5.70
2019-02-22T19:39:26.468Z,6.50
2019-02-22T19:41:55.007Z,5.67
2019-02-22T19:44:23.577Z,5.23
2019-02-22T19:46:52.131Z,5.50
2019-02-22T19:49:20.370Z,5.10
2019-02-22T19:51:48.575Z,5.43
2019-02-22T19:54:17.115Z,5.60
2019-02-22T19:56:45.685Z,5.53
2019-02-22T19:59:13.891Z,5.90
2019-02-22T20:01:42.460Z,5.73
2019-02-22T20:04:11.066Z,5.77
2019-02-22T20:06:39.313Z,6.27
2019-02-22T20:09:08.001Z,6.40
2019-02-22T20:11:36.574Z,5.80
2019-02-22T20:14:05.180Z,6.00
2019-02-22T20:16:33.753Z,6.87
2019-02-22T20:19:02.292Z,6.30
2019-02-22T20:21:30.870Z,8.17
2019-02-22T20:23:59.084Z,7.60
2019-02-22T20:26:27.652Z,7.20
2019-02-22T20:28:56.273Z,7.30
2019-02-22T20:31:24.832Z,7.67
2019-02-22T20:33:53.372Z,6.27
2019-02-22T20:36:28.486Z,6.80
2019-02-22T20:38:52.115Z,6.30
2019-02-22T20:41:20.685Z,6.70
2019-02-22T20:43:49.225Z,6.20
2019-02-22T20:46:17.793Z,6.43
2019-02-22T20:48:46.340Z,6.17
2019-02-22T20:51:14.906Z,7.10
2019-02-22T20:53:43.450Z,5.73
2019-02-22T20:56:12.016Z,6.20
2019-02-22T20:58:40.232Z,7.37
2019-02-22T21:01:14.776Z,6.87
2019-02-22T21:03:39.039Z,7.20
2019-02-22T21:06:07.773Z,6.10
2019-02-22T21:08:36.310Z,6.93
2019-02-22T21:11:04.917Z,6.30
2019-02-22T21:13:33.166Z,6.93
2019-02-22T21:16:01.707Z,6.43
2019-02-22T21:18:29.944Z,7.07
2019-02-22T21:20:58.488Z,6.77
2019-02-22T21:23:27.057Z,7.00
2019-02-22T21:25:55.267Z,6.97
2019-02-22T21:28:23.504Z,7.10
2019-02-22T21:30:51.725Z,7.07
2019-02-22T21:33:19.964Z,6.63
2019-02-22T21:35:48.500Z,7.30
2019-02-22T21:38:17.069Z,7.07
2019-02-22T21:40:45.608Z,7.50
2019-02-22T21:43:13.852Z,7.40
2019-02-22T21:45:42.400Z,7.63
2019-02-22T21:48:10.648Z,7.63
2019-02-22T21:50:38.864Z,7.03
2019-02-22T21:53:07.109Z,8.27
2019-02-22T21:55:35.325Z,8.67
2019-02-22T21:58:03.560Z,7.53
2019-02-22T22:00:31.773Z,8.07
2019-02-22T22:02:59.988Z,7.80
2019-02-22T22:05:28.240Z,7.93
2019-02-22T22:07:56.777Z,7.80
2019-02-22T22:10:25.020Z,8.23
2019-02-22T22:12:53.575Z,8.50
2019-02-22T22:15:21.811Z,8.23
2019-02-22T22:17:50.357Z,7.83
2019-02-22T22:20:18.591Z,8.87
2019-02-22T22:22:47.169Z,8.07
2019-02-22T22:25:17.249Z,7.27
2019-02-22T22:27:45.788Z,8.40
2019-02-22T22:30:15.599Z,8.63
2019-02-22T22:32:44.141Z,8.40
2019-02-22T22:35:13.156Z,8.50
2019-02-22T22:37:41.372Z,8.10
2019-02-22T22:40:10.885Z,7.80
2019-02-22T22:42:39.492Z,8.53
2019-02-22T22:45:08.907Z,8.67
2019-02-22T22:47:37.126Z,8.53
2019-02-22T22:50:07.142Z,7.57
2019-02-22T22:52:35.687Z,8.20
2019-02-22T22:55:04.405Z,8.03
2019-02-22T22:57:32.620Z,8.80
2019-02-22T23:00:00.868Z,9.00
2019-02-22T23:02:29.357Z,8.07
2019-02-22T23:04:57.600Z,8.30
2019-02-22T23:07:25.818Z,8.17
2019-02-22T23:09:54.062Z,8.43
2019-02-22T23:12:22.344Z,8.70
2019-02-22T23:14:50.592Z,8.67
2019-02-22T23:17:18.813Z,8.50
2019-02-22T23:19:47.114Z,8.40
2019-02-22T23:22:15.740Z,8.77
2019-02-22T23:24:43.956Z,9.10
2019-02-22T23:27:12.197Z,8.60
2019-02-22T23:29:40.407Z,9.20
2019-02-22T23:32:08.651Z,8.63
2019-02-22T23:34:36.869Z,8.63
2019-02-22T23:37:06.040Z,9.00
2019-02-22T23:39:34.261Z,8.63
2019-02-22T23:42:02.508Z,9.33
2019-02-22T23:44:30.724Z,9.50
2019-02-22T23:46:58.972Z,9.00
2019-02-22T23:49:27.197Z,8.47
2019-02-22T23:51:55.449Z,9.00
2019-02-22T23:54:23.668Z,9.00
2019-02-22T23:56:51.914Z,9.10
2019-02-22T23:59:20.129Z,9.00
